createdAt,value
2022-08-05T00:00:16.254Z,98338.13
2022-08-05T00:02:50.762Z,98334.84
2022-08-05T00:05:27.085Z,98340.47
2022-08-05T00:08:20.029Z,98340.38
2022-08-05T00:11:00.501Z,98351.66
2022-08-05T00:13:38.383Z,98347.00
2022-08-05T00:16:09.554Z,98343.69
2022-08-05T00:18:39.965Z,98341.06
2022-08-05T00:21:09.183Z,98340.84
2022-08-05T00:23:46.085Z,98335.34
2022-08-05T00:26:15.300Z,98336.44
2022-08-05T00:28:44.099Z,98347.41
2022-08-05T00:31:13.129Z,98342.56
2022-08-05T00:34:55.705Z,98352.00
2022-08-05T00:37:09.902Z,98348.81
2022-08-05T00:39:13.944Z,98344.94
2022-08-05T00:41:46.785Z,98344.56
2022-08-05T00:44:18.366Z,98340.31
2022-08-05T00:46:47.543Z,98341.38
2022-08-05T00:49:21.036Z,98344.75
2022-08-05T00:51:51.741Z,98338.75
2022-08-05T00:54:19.140Z,98335.22
2022-08-05T00:56:51.450Z,98333.13
2022-08-05T00:59:18.670Z,98341.94
2022-08-05T01:01:49.295Z,98341.03
2022-08-05T01:04:16.198Z,98342.50
2022-08-05T01:06:49.086Z,98346.00
2022-08-05T01:09:19.949Z,98346.50
2022-08-05T01:11:50.825Z,98345.66
2022-08-05T01:14:33.499Z,98350.91
2022-08-05T01:17:10.727Z,98346.84
2022-08-05T01:20:03.699Z,98350.69
2022-08-05T01:23:01.523Z,98342.50
2022-08-05T01:25:59.395Z,98335.63
2022-08-05T01:28:29.101Z,98348.84
2022-08-05T01:31:08.971Z,98340.28
2022-08-05T01:33:42.061Z,98335.59
2022-08-05T01:36:17.378Z,98340.88
2022-08-05T01:38:49.992Z,98336.91
2022-08-05T01:41:21.885Z,98346.31
2022-08-05T01:43:50.877Z,98332.84
2022-08-05T01:46:43.050Z,98336.44
2022-08-05T01:49:22.717Z,98340.59
2022-08-05T01:51:55.350Z,98334.84
2022-08-05T01:54:27.136Z,98344.28
2022-08-05T01:58:10.722Z,98339.09
2022-08-05T01:59:47.258Z,98331.78
2022-08-05T02:02:16.041Z,98338.41
2022-08-05T02:04:49.631Z,98345.00
2022-08-05T02:07:21.928Z,98342.34
2022-08-05T02:09:51.013Z,98340.69
2022-08-05T02:12:44.268Z,98343.28
2022-08-05T02:15:35.485Z,98337.41
2022-08-05T02:18:28.424Z,98334.31
2022-08-05T02:20:58.956Z,98331.97
2022-08-05T02:23:33.706Z,98336.84
2022-08-05T02:26:06.156Z,98328.50
2022-08-05T02:28:41.873Z,98331.22
2022-08-05T02:31:16.709Z,98336.28
2022-08-05T02:33:57.772Z,98327.28
2022-08-05T02:36:27.277Z,98330.34
2022-08-05T02:38:56.297Z,98333.75
2022-08-05T02:41:28.826Z,98326.59
2022-08-05T02:44:13.210Z,98329.97
2022-08-05T02:46:58.581Z,98324.25
2022-08-05T02:49:35.756Z,98328.59
2022-08-05T02:52:07.729Z,98325.03
2022-08-05T02:54:37.269Z,98323.13
2022-08-05T02:58:09.941Z,98318.38
2022-08-05T02:59:57.583Z,98319.81
2022-08-05T03:02:33.854Z,98316.38
2022-08-05T03:05:01.914Z,98314.38
2022-08-05T03:08:00.705Z,98308.56
2022-08-05T03:10:21.716Z,98302.22
2022-08-05T03:12:51.807Z,98305.44
2022-08-05T03:15:20.074Z,98307.41
2022-08-05T03:17:46.726Z,98311.78
2022-08-05T03:20:13.693Z,98310.84
2022-08-05T03:22:44.142Z,98309.66
2022-08-05T03:25:32.989Z,98299.78
2022-08-05T03:28:08.285Z,98303.25
2022-08-05T03:30:36.728Z,98296.63
2022-08-05T03:33:07.354Z,98303.31
2022-08-05T03:35:41.181Z,98305.59
2022-08-05T03:38:11.219Z,98294.81
2022-08-05T03:40:47.305Z,98289.88
2022-08-05T03:44:08.306Z,98288.78
2022-08-05T03:46:04.412Z,98290.88
2022-08-05T03:48:35.097Z,98285.66
2022-08-05T03:52:38.510Z,98292.00
2022-08-05T03:55:49.906Z,98291.72
2022-08-05T03:57:16.461Z,98287.44
2022-08-05T03:59:54.966Z,98296.94
2022-08-05T04:02:39.067Z,98296.50
2022-08-05T04:05:16.298Z,98292.28
2022-08-05T04:07:57.389Z,98290.53
2022-08-05T04:10:24.874Z,98295.38
2022-08-05T04:12:55.478Z,98295.38
2022-08-05T04:15:26.408Z,98291.00
2022-08-05T04:17:57.351Z,98291.72
2022-08-05T04:20:26.709Z,98290.81
2022-08-05T04:22:53.231Z,98300.09
2022-08-05T04:25:20.125Z,98300.34
2022-08-05T04:28:11.446Z,98301.84
2022-08-05T04:30:39.754Z,98298.09
2022-08-05T04:33:06.362Z,98292.47
2022-08-05T04:36:10.932Z,98298.06
2022-08-05T04:38:21.047Z,98308.03
2022-08-05T04:40:50.711Z,98302.59
2022-08-05T04:43:18.198Z,98300.91
2022-08-05T04:45:54.938Z,98299.91
2022-08-05T04:48:27.329Z,98305.16
2022-08-05T04:51:02.863Z,98299.06
2022-08-05T04:53:36.706Z,98297.44
2022-08-05T04:56:33.656Z,98306.50
2022-08-05T04:58:54.875Z,98311.38
2022-08-05T05:02:05.740Z,98302.16
2022-08-05T05:04:08.133Z,98307.03
2022-08-05T05:06:44.446Z,98306.59
2022-08-05T05:09:17.388Z,98311.16
2022-08-05T05:11:53.188Z,98314.53
2022-08-05T05:14:28.023Z,98315.06
2022-08-05T05:17:00.114Z,98316.25
2022-08-05T05:19:36.591Z,98312.19
2022-08-05T05:22:24.596Z,98315.84
2022-08-05T05:24:58.146Z,98314.06
2022-08-05T05:27:44.730Z,98317.50
2022-08-05T05:30:29.770Z,98308.50
2022-08-05T05:33:03.593Z,98312.25
2022-08-05T05:35:43.762Z,98325.22
2022-08-05T05:38:13.231Z,98315.69
2022-08-05T05:40:47.961Z,98319.38
2022-08-05T05:43:22.366Z,98320.00
2022-08-05T05:45:54.899Z,98325.09
2022-08-05T05:48:27.783Z,98325.50
2022-08-05T05:50:54.561Z,98321.69
2022-08-05T05:53:22.416Z,98319.91
2022-08-05T05:55:51.962Z,98324.97
2022-08-05T05:58:31.990Z,98330.09
2022-08-05T06:01:12.593Z,98332.72
2022-08-05T06:04:00.436Z,98335.81
2022-08-05T06:06:31.054Z,98331.53
2022-08-05T06:09:00.302Z,98330.19
2022-08-05T06:11:28.971Z,98332.28
2022-08-05T06:13:56.134Z,98331.59
2022-08-05T06:16:29.648Z,98327.88
2022-08-05T06:19:00.208Z,98332.47
2022-08-05T06:21:35.889Z,98326.91
2022-08-05T06:24:07.693Z,98339.88
2022-08-05T06:26:51.546Z,98330.22
2022-08-05T06:29:42.895Z,98328.22
2022-08-05T06:32:21.321Z,98325.97
2022-08-05T06:34:53.283Z,98334.75
2022-08-05T06:37:56.369Z,98331.00
2022-08-05T06:40:07.760Z,98333.31
2022-08-05T06:42:34.450Z,98329.97
2022-08-05T06:45:05.286Z,98329.19
2022-08-05T06:48:35.996Z,98332.00
2022-08-05T06:50:18.780Z,98335.66
2022-08-05T06:52:58.386Z,98327.56
2022-08-05T06:55:25.692Z,98323.56
2022-08-05T06:58:03.836Z,98329.84
2022-08-05T07:00:41.165Z,98329.00
2022-08-05T07:03:09.849Z,98323.19
2022-08-05T07:05:37.635Z,98319.13
2022-08-05T07:08:04.881Z,98321.19
2022-08-05T07:10:32.726Z,98320.16
2022-08-05T07:13:37.260Z,98318.56
2022-08-05T07:16:50.970Z,98322.44
2022-08-05T07:19:10.195Z,98313.13
2022-08-05T07:22:00.546Z,98321.41
2022-08-05T07:24:24.177Z,98317.78
2022-08-05T07:26:55.419Z,98317.22
2022-08-05T07:30:22.165Z,98314.44
2022-08-05T07:32:08.599Z,98316.72
2022-08-05T07:34:37.218Z,98318.66
2022-08-05T07:37:11.576Z,98312.19
2022-08-05T07:40:26.131Z,98312.44
2022-08-05T07:42:33.416Z,98316.50
2022-08-05T07:45:00.722Z,98305.97
2022-08-05T07:47:27.404Z,98306.75
2022-08-05T07:50:09.693Z,98311.06
2022-08-05T07:52:41.155Z,98305.38
2022-08-05T07:55:44.501Z,98308.03
2022-08-05T07:58:02.364Z,98308.28
2022-08-05T08:00:31.887Z,98297.75
2022-08-05T08:03:14.322Z,98305.28
2022-08-05T08:05:49.692Z,98296.94
2022-08-05T08:08:20.596Z,98294.34
2022-08-05T08:10:50.662Z,98301.66
2022-08-05T08:13:22.105Z,98298.44
2022-08-05T08:16:49.866Z,98296.19
2022-08-05T08:18:42.666Z,98283.19
2022-08-05T08:21:17.653Z,98291.72
2022-08-05T08:24:03.842Z,98294.16
2022-08-05T08:26:32.365Z,98293.75
2022-08-05T08:29:22.255Z,98291.72
2022-08-05T08:31:47.046Z,98286.63
2022-08-05T08:34:15.097Z,98289.06
2022-08-05T08:36:48.907Z,98284.00
2022-08-05T08:39:19.790Z,98284.03
2022-08-05T08:41:52.102Z,98276.53
2022-08-05T08:45:21.245Z,98276.53
2022-08-05T08:48:05.721Z,98276.94
2022-08-05T08:50:31.660Z,98267.38
2022-08-05T08:53:08.214Z,98264.91
2022-08-05T08:56:02.774Z,98260.81
2022-08-05T08:58:43.132Z,98260.19
2022-08-05T09:01:12.057Z,98265.47
2022-08-05T09:03:46.780Z,98258.75
2022-08-05T09:06:17.157Z,98256.50
2022-08-05T09:08:47.002Z,98263.94
2022-08-05T09:11:18.840Z,98261.28
2022-08-05T09:14:54.378Z,98259.22
2022-08-05T09:16:52.923Z,98248.41
2022-08-05T09:19:20.228Z,98257.72
2022-08-05T09:22:18.387Z,98257.94
2022-08-05T09:24:42.540Z,98257.31
2022-08-05T09:27:09.639Z,98257.75
2022-08-05T09:29:48.040Z,98244.53
2022-08-05T09:32:40.057Z,98241.31
2022-08-05T09:35:26.775Z,98242.00
2022-08-05T09:38:12.272Z,98242.81
2022-08-05T09:40:51.888Z,98238.75
2022-08-05T09:43:41.474Z,98234.66
2022-08-05T09:46:27.414Z,98227.66
2022-08-05T09:49:08.157Z,98230.53
2022-08-05T09:51:49.475Z,98230.09
2022-08-05T09:54:28.799Z,98223.88
2022-08-05T09:56:57.435Z,98226.59
2022-08-05T09:59:27.632Z,98212.94
2022-08-05T10:01:57.946Z,98218.16
2022-08-05T10:04:35.852Z,98208.03
2022-08-05T10:07:20.574Z,98207.41
2022-08-05T10:10:15.222Z,98208.03
2022-08-05T10:12:49.820Z,98202.66
2022-08-05T10:15:27.736Z,98197.88
2022-08-05T10:18:14.179Z,98200.53
2022-08-05T10:20:47.692Z,98197.03
2022-08-05T10:23:59.432Z,98192.44
2022-08-05T10:26:31.618Z,98190.22
2022-08-05T10:28:59.274Z,98191.19
2022-08-05T10:32:53.398Z,98188.31
2022-08-05T10:34:12.845Z,98179.59
2022-08-05T10:36:41.519Z,98184.22
2022-08-05T10:39:24.484Z,98175.91
2022-08-05T10:42:02.761Z,98179.31
2022-08-05T10:44:32.667Z,98177.22
2022-08-05T10:47:10.245Z,98174.09
2022-08-05T10:50:33.035Z,98170.28
2022-08-05T10:52:59.952Z,98173.97
2022-08-05T10:55:27.401Z,98170.63
2022-08-05T10:58:11.663Z,98162.66
2022-08-05T11:00:47.619Z,98156.91
2022-08-05T11:03:23.312Z,98160.34
2022-08-05T11:06:15.558Z,98155.84
2022-08-05T11:09:31.941Z,98160.09
2022-08-05T11:12:26.234Z,98154.31
2022-08-05T11:15:20.389Z,98151.88
2022-08-05T11:18:09.758Z,98155.81
2022-08-05T11:20:45.049Z,98146.91
2022-08-05T11:23:33.735Z,98142.75
2022-08-05T11:26:28.207Z,98142.88
2022-08-05T11:29:06.626Z,98136.66
2022-08-05T11:31:58.788Z,98134.22
2022-08-05T11:34:37.574Z,98130.38
2022-08-05T11:37:06.184Z,98128.94
2022-08-05T11:40:00.305Z,98131.63
2022-08-05T11:42:37.782Z,98129.88
2022-08-05T11:45:14.323Z,98122.81
2022-08-05T11:47:55.369Z,98123.66
2022-08-05T11:50:22.843Z,98115.44
2022-08-05T11:52:53.200Z,98118.09
2022-08-05T11:55:24.075Z,98108.59
2022-08-05T11:58:09.586Z,98112.44
2022-08-05T12:00:39.099Z,98107.75
2022-08-05T12:03:29.176Z,98107.38
2022-08-05T12:06:06.675Z,98103.56
2022-08-05T12:08:58.660Z,98094.41
2022-08-05T12:11:40.175Z,98099.47
2022-08-05T12:14:10.323Z,98097.13
2022-08-05T12:16:40.259Z,98095.59
2022-08-05T12:20:26.719Z,98081.16
2022-08-05T12:21:58.950Z,98079.25
2022-08-05T12:24:27.817Z,98075.44
2022-08-05T12:26:54.889Z,98071.00
2022-08-05T12:29:26.730Z,98064.31
2022-08-05T12:31:56.137Z,98057.63
2022-08-05T12:34:35.850Z,98050.13
2022-08-05T12:37:10.864Z,98047.53
2022-08-05T12:39:44.907Z,98047.69
2022-08-05T12:42:19.424Z,98053.41
2022-08-05T12:44:47.502Z,98043.16
2022-08-05T12:47:26.354Z,98045.66
2022-08-05T12:50:02.006Z,98037.84
2022-08-05T12:52:39.348Z,98031.59
2022-08-05T12:55:28.401Z,98038.84
2022-08-05T12:58:38.657Z,98027.34
2022-08-05T13:02:02.758Z,98026.84
2022-08-05T13:03:41.598Z,98038.63
2022-08-05T13:06:13.272Z,98026.34
2022-08-05T13:08:40.035Z,98020.00
2022-08-05T13:11:07.860Z,98030.84
2022-08-05T13:14:05.171Z,98038.75
2022-08-05T13:16:28.760Z,98034.53
2022-08-05T13:18:59.423Z,98035.34
2022-08-05T13:21:28.515Z,98032.56
2022-08-05T13:24:08.905Z,98040.78
2022-08-05T13:26:36.061Z,98041.13
2022-08-05T13:29:02.628Z,98053.88
2022-08-05T13:32:03.375Z,98048.44
2022-08-05T13:34:22.859Z,98054.31
2022-08-05T13:36:54.087Z,98056.25
2022-08-05T13:40:14.549Z,98055.69
2022-08-05T13:42:14.296Z,98050.69
2022-08-05T13:44:45.561Z,98059.03
2022-08-05T13:47:36.006Z,98057.22
2022-08-05T13:50:04.091Z,98057.13
2022-08-05T13:52:35.164Z,98056.13
2022-08-05T13:55:07.312Z,98061.16
2022-08-05T13:57:51.088Z,98055.44
2022-08-05T14:00:27.667Z,98054.56
2022-08-05T14:02:57.361Z,98050.00
2022-08-05T14:05:48.129Z,98057.75
2022-08-05T14:08:20.484Z,98054.28
2022-08-05T14:10:53.861Z,98050.34
2022-08-05T14:13:30.407Z,98042.03
2022-08-05T14:16:09.325Z,98035.16
2022-08-05T14:18:38.102Z,98027.69
2022-08-05T14:22:07.281Z,98040.13
2022-08-05T14:23:51.452Z,98025.06
2022-08-05T14:26:36.891Z,98029.78
2022-08-05T14:29:05.010Z,98021.41
2022-08-05T14:32:03.084Z,98016.03
2022-08-05T14:34:18.810Z,98011.22
2022-08-05T14:36:50.623Z,98013.31
2022-08-05T14:39:23.409Z,98014.06
2022-08-05T14:42:16.758Z,98016.84
2022-08-05T14:44:37.089Z,98020.78
2022-08-05T14:47:03.929Z,98016.84
2022-08-05T14:49:56.109Z,98018.59
2022-08-05T14:52:36.273Z,98029.97
2022-08-05T14:55:04.045Z,98034.03
2022-08-05T14:57:34.042Z,98033.31
2022-08-05T15:00:17.351Z,98034.34
2022-08-05T15:02:47.188Z,98033.56
2022-08-05T15:05:14.298Z,98035.09
2022-08-05T15:08:10.689Z,98030.44
2022-08-05T15:10:28.904Z,98041.59
2022-08-05T15:13:00.836Z,98054.22
2022-08-05T15:15:54.494Z,98059.72
2022-08-05T15:18:17.534Z,98057.97
2022-08-05T15:20:44.397Z,98053.53
2022-08-05T15:23:14.776Z,98055.41
2022-08-05T15:25:53.818Z,98051.34
2022-08-05T15:28:27.387Z,98065.28
2022-08-05T15:30:55.375Z,98066.63
2022-08-05T15:34:04.469Z,98076.88
2022-08-05T15:36:17.378Z,98071.00
2022-08-05T15:40:59.023Z,98096.56
2022-08-05T15:41:57.631Z,98087.00
2022-08-05T15:44:27.585Z,98109.78
2022-08-05T15:46:55.677Z,98096.88
2022-08-05T15:49:53.781Z,98112.34
2022-08-05T15:52:16.135Z,98127.00
2022-08-05T15:54:43.830Z,98123.88
2022-08-05T15:57:10.870Z,98122.47
2022-08-05T15:59:38.118Z,98125.56
2022-08-05T16:02:09.622Z,98127.88
2022-08-05T16:04:42.496Z,98124.44
2022-08-05T16:07:10.797Z,98130.44
2022-08-05T16:09:37.981Z,98140.75
2022-08-05T16:12:09.319Z,98132.00
2022-08-05T16:14:38.138Z,98140.78
2022-08-05T16:17:04.958Z,98131.03
2022-08-05T16:20:04.199Z,98128.38
2022-08-05T16:22:24.323Z,98120.41
2022-08-05T16:24:54.549Z,98133.53
2022-08-05T16:27:47.206Z,98127.78
2022-08-05T16:30:23.217Z,98123.19
2022-08-05T16:32:52.157Z,98134.56
2022-08-05T16:35:19.563Z,98127.34
2022-08-05T16:38:02.656Z,98125.06
2022-08-05T16:40:42.746Z,98114.47
2022-08-05T16:43:19.376Z,98111.31
2022-08-05T16:46:06.332Z,98101.44
2022-08-05T16:48:35.523Z,98109.22
2022-08-05T16:51:02.548Z,98112.09
2022-08-05T16:54:05.302Z,98113.94
2022-08-05T16:56:23.369Z,98091.88
2022-08-05T16:58:50.792Z,98092.28
2022-08-05T17:01:18.761Z,98101.69
2022-08-05T17:03:46.596Z,98108.59
2022-08-05T17:06:16.597Z,98115.66
2022-08-05T17:08:53.389Z,98105.94
2022-08-05T17:11:23.761Z,98104.22
2022-08-05T17:14:00.173Z,98108.94
2022-08-05T17:16:33.305Z,98115.44
2022-08-05T17:19:03.210Z,98112.50
2022-08-05T17:21:36.222Z,98108.72
2022-08-05T17:24:19.778Z,98109.06
2022-08-05T17:26:57.821Z,98113.88
2022-08-05T17:29:33.665Z,98112.72
2022-08-05T17:32:17.019Z,98106.47
2022-08-05T17:34:53.265Z,98109.09
2022-08-05T17:37:39.324Z,98107.41
2022-08-05T17:40:10.213Z,98089.25
2022-08-05T17:42:46.405Z,98082.94
2022-08-05T17:45:24.778Z,98085.28
2022-08-05T17:47:55.457Z,98074.59
2022-08-05T17:50:28.032Z,98072.88
2022-08-05T17:52:56.294Z,98071.63
2022-08-05T17:55:27.192Z,98070.75
2022-08-05T17:57:54.345Z,98067.59
2022-08-05T18:00:20.885Z,98062.41
2022-08-05T18:02:55.348Z,98082.59
2022-08-05T18:05:22.062Z,98077.69
2022-08-05T18:07:48.793Z,98075.94
2022-08-05T18:10:20.855Z,98078.75
2022-08-05T18:12:49.334Z,98081.00
2022-08-05T18:15:16.170Z,98094.53
2022-08-05T18:17:59.723Z,98092.22
2022-08-05T18:20:32.056Z,98105.56
2022-08-05T18:23:09.567Z,98095.41
2022-08-05T18:25:45.355Z,98097.06
2022-08-05T18:28:16.453Z,98087.34
2022-08-05T18:30:45.178Z,98086.84
2022-08-05T18:33:13.760Z,98082.75
2022-08-05T18:36:00.817Z,98083.59
2022-08-05T18:38:28.370Z,98100.69
2022-08-05T18:41:57.518Z,98106.94
2022-08-05T18:43:42.668Z,98110.75
2022-08-05T18:46:15.020Z,98121.78
2022-08-05T18:48:42.159Z,98121.97
2022-08-05T18:52:04.238Z,98119.91
2022-08-05T18:54:14.883Z,98123.78
2022-08-05T18:56:41.753Z,98117.28
2022-08-05T18:59:43.494Z,98116.47
2022-08-05T19:02:04.992Z,98123.78
2022-08-05T19:05:01.652Z,98127.28
2022-08-05T19:07:45.404Z,98131.31
2022-08-05T19:10:18.652Z,98136.13
2022-08-05T19:12:53.043Z,98136.31
2022-08-05T19:15:56.675Z,98140.34
2022-08-05T19:18:10.264Z,98133.53
2022-08-05T19:20:46.646Z,98138.84
2022-08-05T19:23:22.374Z,98140.88
2022-08-05T19:26:02.935Z,98145.16
2022-08-05T19:28:32.917Z,98160.38
2022-08-05T19:31:01.300Z,98159.16
2022-08-05T19:33:36.386Z,98165.88
2022-08-05T19:36:06.009Z,98168.25
2022-08-05T19:38:36.702Z,98181.88
2022-08-05T19:41:07.402Z,98184.13
2022-08-05T19:44:06.629Z,98188.19
2022-08-05T19:46:29.243Z,98190.81
2022-08-05T19:48:56.497Z,98189.59
2022-08-05T19:51:37.866Z,98201.78
2022-08-05T19:54:15.481Z,98210.13
2022-08-05T19:56:54.409Z,98214.97
2022-08-05T19:59:22.069Z,98217.63
2022-08-05T20:02:08.093Z,98221.84
2022-08-05T20:04:34.963Z,98212.25
2022-08-05T20:07:01.952Z,98222.00
2022-08-05T20:09:28.582Z,98220.38
2022-08-05T20:12:15.249Z,98228.13
2022-08-05T20:14:41.923Z,98233.84
2022-08-05T20:17:09.947Z,98237.41
2022-08-05T20:19:41.400Z,98238.22
2022-08-05T20:22:09.550Z,98244.28
2022-08-05T20:24:36.414Z,98239.59
2022-08-05T20:27:04.764Z,98243.59
2022-08-05T20:29:38.283Z,98245.34
2022-08-05T20:32:06.575Z,98246.22
2022-08-05T20:34:33.545Z,98241.78
2022-08-05T20:37:00.866Z,98244.69
2022-08-05T20:39:35.671Z,98253.72
2022-08-05T20:42:04.634Z,98242.09
2022-08-05T20:44:33.098Z,98249.59
2022-08-05T20:47:06.657Z,98245.50
2022-08-05T20:49:39.504Z,98251.50
2022-08-05T20:52:07.709Z,98259.84
2022-08-05T20:54:43.037Z,98260.03
2022-08-05T20:57:42.003Z,98254.28
2022-08-05T21:00:34.937Z,98254.16
2022-08-05T21:03:01.264Z,98258.91
2022-08-05T21:05:47.883Z,98261.94
2022-08-05T21:08:15.437Z,98271.72
2022-08-05T21:10:48.863Z,98258.94
2022-08-05T21:13:26.508Z,98265.03
2022-08-05T21:16:03.719Z,98271.19
2022-08-05T21:18:30.772Z,98274.03
2022-08-05T21:20:57.673Z,98270.50
2022-08-05T21:23:24.924Z,98273.88
2022-08-05T21:25:51.684Z,98274.22
2022-08-05T21:28:23.545Z,98263.66
2022-08-05T21:30:50.759Z,98262.63
2022-08-05T21:33:22.003Z,98265.78
2022-08-05T21:35:58.224Z,98272.75
2022-08-05T21:38:26.728Z,98272.59
2022-08-05T21:40:53.850Z,98260.78
2022-08-05T21:43:24.706Z,98262.72
2022-08-05T21:45:57.727Z,98262.84
2022-08-05T21:48:28.192Z,98261.03
2022-08-05T21:50:55.212Z,98263.59
2022-08-05T21:53:27.203Z,98257.13
2022-08-05T21:56:05.638Z,98255.28
2022-08-05T21:58:36.765Z,98253.16
2022-08-05T22:01:10.526Z,98255.38
2022-08-05T22:03:52.048Z,98252.69
2022-08-05T22:06:22.866Z,98254.84
2022-08-05T22:08:52.168Z,98247.91
2022-08-05T22:11:34.834Z,98247.56
2022-08-05T22:14:05.777Z,98248.03
2022-08-05T22:16:53.170Z,98247.75
2022-08-05T22:20:00.226Z,98246.81
2022-08-05T22:22:11.242Z,98241.56
2022-08-05T22:24:57.414Z,98248.63
2022-08-05T22:28:10.640Z,98250.41
2022-08-05T22:30:32.298Z,98251.16
2022-08-05T22:33:02.648Z,98251.91
2022-08-05T22:35:47.812Z,98254.03
2022-08-05T22:38:15.927Z,98247.38
2022-08-05T22:40:49.933Z,98253.03
2022-08-05T22:43:36.998Z,98249.66
2022-08-05T22:46:12.226Z,98251.28
2022-08-05T22:48:41.947Z,98250.34
2022-08-05T22:51:16.070Z,98258.00
2022-08-05T22:53:51.077Z,98257.72
2022-08-05T22:56:29.797Z,98258.16
2022-08-05T22:58:58.385Z,98256.84
2022-08-05T23:02:04.015Z,98251.38
2022-08-05T23:04:13.986Z,98251.53
2022-08-05T23:06:41.098Z,98246.59
2022-08-05T23:09:24.574Z,98245.53
2022-08-05T23:11:55.858Z,98242.00
2022-08-05T23:14:31.862Z,98233.50
2022-08-05T23:17:18.707Z,98232.91
2022-08-05T23:19:57.823Z,98237.88
2022-08-05T23:22:27.477Z,98235.25
2022-08-05T23:24:55.252Z,98234.78
2022-08-05T23:27:22.711Z,98231.56
2022-08-05T23:29:50.895Z,98227.84
2022-08-05T23:32:22.510Z,98238.47
2022-08-05T23:34:50.733Z,98227.91
2022-08-05T23:37:17.965Z,98233.84
2022-08-05T23:39:54.170Z,98233.97
2022-08-05T23:42:29.182Z,98235.06
2022-08-05T23:44:56.618Z,98239.03
2022-08-05T23:47:24.931Z,98232.94
2022-08-05T23:49:52.058Z,98230.75
2022-08-05T23:52:32.633Z,98242.34
2022-08-05T23:55:09.094Z,98237.41
2022-08-05T23:57:36.128Z,98226.06
